PST,Max TemperatureF,Mean TemperatureF,Min TemperatureF,Max Dew PointF,MeanDew PointF,Min DewpointF,Max Humidity, Mean Humidity, Min Humidity, Max Sea Level PressureIn, Mean Sea Level PressureIn, Min Sea Level PressureIn, Max VisibilityMiles, Mean VisibilityMiles, Min VisibilityMiles, Max Wind SpeedMPH, Mean Wind SpeedMPH, Max Gust SpeedMPH,PrecipitationIn, CloudCover, Events, WindDirDegrees
2014-1-1,32,30,28,32,30,28,100,98,93,30.47,30.35,30.30,0,0,0,8,4,,0.00,,Fog-Rain,30
2014-1-2,37,33,29,34,31,30,100,96,81,30.35,30.13,29.72,10,5,1,16,5,22,0.00,6,Rain-Snow,86
2014-1-3,37,32,25,32,28,17,100,83,64,30.19,29.90,29.71,10,10,6,21,15,26,0.02,3,Rain,215
2014-1-4,35,28,21,22,18,13,85,63,44,30.43,30.31,30.16,10,10,10,18,13,25,0.00,0,Snow,222
2014-1-5,32,25,18,20,16,12,83,66,50,30.63,30.51,30.35,10,10,10,8,4,,0.00,0,Snow,15
2014-1-6,29,23,17,18,17,14,87,75,60,30.54,30.32,30.13,10,10,10,12,8,,0.00,4,,25
2014-1-7,28,24,21,27,23,17,100,89,74,30.22,30.07,29.99,10,6,2,9,6,,0.07,8,Snow,30
2014-1-8,37,32,26,37,31,27,100,99,93,30.10,29.87,29.67,10,3,0,22,6,29,0.21,8,Fog-Rain-Snow,131
2014-1-9,35,32,28,34,31,28,100,97,84,29.94,29.78,29.65,10,7,0,18,13,24,0.02,6,Fog-Rain-Snow,166
2014-1-10,39,36,32,36,33,31,100,89,75,29.97,29.81,29.66,10,10,10,23,14,30,0.00,4,Rain-Snow,163
2014-1-11,46,40,33,38,35,31,93,84,65,29.74,29.49,29.39,10,10,9,36,20,46,0.13,6,Rain-Snow,161
2014-1-12,39,36,32,36,31,25,93,83,71,30.11,29.92,29.48,10,10,10,29,19,43,0.01,3,Rain-Snow,179
2014-1-13,45,40,34,36,34,32,92,81,70,30.53,30.29,30.08,10,10,9,31,20,38,0.00,0,Snow,204
2014-1-14,44,38,31,37,33,30,100,92,75,30.66,30.53,30.43,10,8,1,12,6,,0.00,2,,171
2014-1-15,41,32,24,34,29,23,100,92,70,30.58,30.48,30.36,10,6,0,9,3,,0.00,1,Fog-Rain,335
2014-1-16,28,26,24,28,26,23,100,97,93,30.62,30.47,30.37,0,0,0,7,4,,0.00,,Fog,42
2014-1-17,28,26,24,28,25,23,100,98,93,30.47,30.35,30.30,0,0,0,5,3,,0.00,,Fog,52
2014-1-18,28,26,24,28,27,25,100,97,93,30.43,30.26,30.16,2,0,0,0,0,,0.00,8,Fog-Snow,-1
2014-1-19,28,26,24,28,26,25,100,97,93,30.44,30.19,30.12,10,3,0,6,0,,0.00,8,Fog,20
2014-1-20,28,26,24,28,26,25,100,98,93,30.57,30.42,30.34,10,2,0,6,4,,0.00,7,Fog,36
2014-1-21,28,26,24,27,25,23,100,97,93,30.52,30.37,30.29,10,1,0,0,0,,0.00,8,Fog-Snow,-1
2014-1-22,27,26,26,27,26,25,100,97,93,30.54,30.34,30.26,10,6,1,9,1,,0.00,8,,29
2014-1-23,28,27,26,28,27,25,100,99,90,30.66,30.52,30.45,10,1,0,7,4,,0.00,8,Fog,59
2014-1-24,28,26,24,27,26,25,100,96,91,30.69,30.53,30.49,10,2,0,7,2,,0.00,8,Fog,31
2014-1-25,28,26,24,28,26,23,100,96,93,30.58,30.43,30.28,10,5,1,6,1,,0.00,8,Snow,196
2014-1-26,28,26,24,28,25,23,100,97,93,30.37,30.26,30.18,10,10,3,7,3,,0.00,8,Snow,331
2014-1-27,28,26,24,28,25,24,100,98,93,30.44,30.30,30.21,10,3,0,7,4,,0.00,8,Fog,258
2014-1-28,28,26,24,27,25,23,100,97,93,30.43,30.28,30.03,10,5,0,7,2,,0.00,8,Fog-Snow,142
2014-1-29,28,24,21,28,27,21,100,99,93,30.08,29.73,29.60,10,2,0,14,6,,0.23,8,Fog-Rain-Snow,297
2014-1-30,32,26,21,32,26,19,100,97,93,29.94,29.76,29.69,10,3,0,9,5,,0.00,7,Fog-Snow,185
2014-1-31,32,22,13,27,21,11,100,91,75,30.14,29.96,29.85,10,10,7,9,5,,0.00,6,Snow,294